createdAt,value
2018-07-14T00:01:03.361Z,19.28
2018-07-14T00:06:03.823Z,18.78
2018-07-14T00:11:03.393Z,18.78
2018-07-14T00:16:03.720Z,18.58
2018-07-14T00:21:03.201Z,18.58
2018-07-14T00:26:03.418Z,18.58
2018-07-14T00:31:03.708Z,18.78
2018-07-14T00:36:03.192Z,19.08
2018-07-14T00:41:03.776Z,19.08
2018-07-14T00:46:03.058Z,19.58
2018-07-14T00:51:03.517Z,19.08
2018-07-14T00:56:03.753Z,18.28
2018-07-14T01:01:03.067Z,17.88
2018-07-14T01:06:03.509Z,17.98
2018-07-14T01:11:03.080Z,17.98
2018-07-14T01:16:03.406Z,17.78
2018-07-14T01:21:03.863Z,17.98
2018-07-14T01:26:03.144Z,18.08
2018-07-14T01:31:03.419Z,17.98
2018-07-14T01:36:03.888Z,17.78
2018-07-14T01:41:03.477Z,17.78
2018-07-14T01:46:03.748Z,17.68
2018-07-14T01:51:03.205Z,17.48
2018-07-14T01:56:03.412Z,17.58
2018-07-14T02:01:03.718Z,17.48
2018-07-14T02:06:03.180Z,17.48
2018-07-14T02:11:03.798Z,17.08
2018-07-14T02:16:03.095Z,17.08
2018-07-14T02:21:03.603Z,17.18
2018-07-14T02:26:09.207Z,17.18
2018-07-14T02:31:03.106Z,17.78
2018-07-14T02:36:03.596Z,17.68
2018-07-14T02:41:03.133Z,17.68
2018-07-14T02:46:03.476Z,17.08
2018-07-14T02:51:03.937Z,17.18
2018-07-14T02:56:03.159Z,16.68
2018-07-14T03:01:03.469Z,16.48
2018-07-14T03:06:03.917Z,16.48
2018-07-14T03:11:03.516Z,16.48
2018-07-14T03:16:03.794Z,16.48
2018-07-14T03:21:03.265Z,16.38
2018-07-14T03:26:03.468Z,16.28
2018-07-14T03:31:03.804Z,16.18
2018-07-14T03:36:03.277Z,16.08
2018-07-14T03:41:03.836Z,16.18
2018-07-14T03:46:03.138Z,16.08
2018-07-14T03:51:03.598Z,16.48
2018-07-14T03:56:03.815Z,16.18
2018-07-14T04:01:03.083Z,16.38
2018-07-14T04:06:03.571Z,15.98
2018-07-14T04:11:03.175Z,15.98
2018-07-14T04:16:03.548Z,15.98
2018-07-14T04:21:03.948Z,15.88
2018-07-14T04:26:03.740Z,15.88
2018-07-14T04:31:03.059Z,16.08
2018-07-14T04:36:03.510Z,16.08
2018-07-14T04:41:03.130Z,15.98
2018-07-14T04:46:03.357Z,15.98
2018-07-14T04:51:03.823Z,16.08
2018-07-14T04:56:03.054Z,16.18
2018-07-14T05:01:03.310Z,16.38
2018-07-14T05:06:03.809Z,16.28
2018-07-14T05:11:03.416Z,16.38
2018-07-14T05:16:03.690Z,16.18
2018-07-14T05:21:03.203Z,16.38
2018-07-14T05:26:03.373Z,16.38
2018-07-14T05:31:03.681Z,16.58
2018-07-14T05:36:03.192Z,16.58
2018-07-14T05:41:03.752Z,16.68
2018-07-14T05:46:03.113Z,16.88
2018-07-14T05:51:03.539Z,16.98
2018-07-14T05:56:03.745Z,17.28
2018-07-14T06:01:03.036Z,17.38
2018-07-14T06:06:03.547Z,17.38
2018-07-14T06:11:03.730Z,17.48
2018-07-14T06:16:03.366Z,17.38
2018-07-14T06:21:03.855Z,17.48
2018-07-14T06:26:03.074Z,17.58
2018-07-14T06:31:03.405Z,17.68
2018-07-14T06:36:03.856Z,17.78
2018-07-14T06:41:03.432Z,17.78
2018-07-14T06:46:03.712Z,17.78
2018-07-14T06:51:03.211Z,18.08
2018-07-14T06:56:03.421Z,18.68
2018-07-14T07:01:03.696Z,18.48
2018-07-14T07:06:03.190Z,18.98
2018-07-14T07:11:03.755Z,18.58
2018-07-14T07:16:03.114Z,18.88
2018-07-14T07:21:03.535Z,18.58
2018-07-14T07:26:03.765Z,18.78
2018-07-14T07:31:03.108Z,19.08
2018-07-14T07:36:03.610Z,18.88
2018-07-14T07:41:03.204Z,19.08
2018-07-14T07:46:03.456Z,18.98
2018-07-14T07:51:03.922Z,19.18
2018-07-14T07:56:03.111Z,19.58
2018-07-14T08:01:03.429Z,19.58
2018-07-14T08:06:03.856Z,19.68
2018-07-14T08:11:03.486Z,19.68
2018-07-14T08:16:04.218Z,19.88
2018-07-14T08:21:03.263Z,20.18
2018-07-14T08:26:03.518Z,20.18
2018-07-14T08:31:03.808Z,20.58
2018-07-14T08:36:03.891Z,20.88
2018-07-14T08:41:03.804Z,21.18
2018-07-14T08:46:03.103Z,21.78
2018-07-14T08:51:03.665Z,21.80
2018-07-14T08:56:03.753Z,22.17
2018-07-14T09:01:03.089Z,22.15
2018-07-14T09:06:03.566Z,22.18
2018-07-14T09:11:03.121Z,22.71
2018-07-14T09:16:03.425Z,22.40
2018-07-14T09:21:03.929Z,22.53
2018-07-14T09:26:03.397Z,23.18
2018-07-14T09:31:03.417Z,23.44
2018-07-14T09:36:04.568Z,23.17
2018-07-14T09:41:03.497Z,23.06
2018-07-14T09:46:03.807Z,23.52
2018-07-14T09:51:03.242Z,23.80
2018-07-14T09:56:03.471Z,23.41
2018-07-14T10:01:03.761Z,23.91
2018-07-14T10:06:03.532Z,23.51
2018-07-14T10:11:03.849Z,23.67
2018-07-14T10:16:13.771Z,23.97
2018-07-14T10:21:03.680Z,24.33
2018-07-14T10:26:03.878Z,24.01
2018-07-14T10:31:03.168Z,24.73
2018-07-14T10:36:03.619Z,24.68
2018-07-14T10:41:03.250Z,24.52
2018-07-14T10:46:03.493Z,24.69
2018-07-14T10:51:03.975Z,24.79
2018-07-14T10:56:03.170Z,25.28
2018-07-14T11:01:03.448Z,25.17
2018-07-14T11:06:04.358Z,25.66
2018-07-14T11:11:03.519Z,25.44
2018-07-14T11:16:03.810Z,25.90
2018-07-14T11:21:03.317Z,25.35
2018-07-14T11:26:03.479Z,25.96
2018-07-14T11:31:03.777Z,25.33
2018-07-14T11:36:03.256Z,26.08
2018-07-14T11:41:03.874Z,25.40
2018-07-14T11:46:03.153Z,25.69
2018-07-14T11:51:03.591Z,25.67
2018-07-14T11:56:03.791Z,25.66
2018-07-14T12:01:03.126Z,26.00
2018-07-14T12:06:03.549Z,26.02
2018-07-14T12:11:03.167Z,26.14
2018-07-14T12:16:03.474Z,25.86
2018-07-14T12:21:03.978Z,26.34
2018-07-14T12:26:03.207Z,25.93
2018-07-14T12:31:03.479Z,25.73
2018-07-14T12:36:03.939Z,25.62
2018-07-14T12:41:03.557Z,25.76
2018-07-14T12:46:03.826Z,25.58
2018-07-14T12:51:05.865Z,26.26
2018-07-14T12:56:03.555Z,25.63
2018-07-14T13:01:03.854Z,24.73
2018-07-14T13:06:03.295Z,24.54
2018-07-14T13:11:03.915Z,24.54
2018-07-14T13:16:03.197Z,25.43
2018-07-14T13:21:03.667Z,25.28
2018-07-14T13:26:09.113Z,25.53
2018-07-14T13:31:03.214Z,25.28
2018-07-14T13:36:03.690Z,25.49
2018-07-14T13:41:03.274Z,25.62
2018-07-14T13:46:03.636Z,25.13
2018-07-14T13:51:04.021Z,25.13
2018-07-14T13:56:03.236Z,25.13
2018-07-14T14:01:03.513Z,25.19
2018-07-14T14:06:03.974Z,24.39
2018-07-14T14:11:03.588Z,25.31
2018-07-14T14:16:03.888Z,25.02
2018-07-14T14:21:03.387Z,24.30
2018-07-14T14:26:03.611Z,24.31
2018-07-14T14:31:03.903Z,24.62
2018-07-14T14:36:03.380Z,23.84
2018-07-14T14:41:02.970Z,24.44
2018-07-14T14:46:03.254Z,23.20
2018-07-14T14:51:03.734Z,23.59
2018-07-14T14:56:10.592Z,23.54
2018-07-14T15:01:03.214Z,23.39
2018-07-14T15:06:03.672Z,23.84
2018-07-14T15:11:03.335Z,23.65
2018-07-14T15:16:03.609Z,23.70
2018-07-14T15:21:03.077Z,24.01
2018-07-14T15:26:03.336Z,23.99
2018-07-14T15:31:03.729Z,24.63
2018-07-14T15:36:03.101Z,23.70
2018-07-14T15:41:03.713Z,23.67
2018-07-14T15:46:02.952Z,23.86
2018-07-14T15:51:03.477Z,23.96
2018-07-14T15:56:03.647Z,23.87
2018-07-14T16:01:02.945Z,23.54
2018-07-14T16:06:03.406Z,23.85
2018-07-14T16:11:03.048Z,23.83
2018-07-14T16:16:03.387Z,24.14
2018-07-14T16:21:03.841Z,24.02
2018-07-14T16:26:03.053Z,23.41
2018-07-14T16:31:03.350Z,23.80
2018-07-14T16:36:03.841Z,23.54
2018-07-14T16:41:03.553Z,23.47
2018-07-14T16:46:03.734Z,23.20
2018-07-14T16:51:03.254Z,22.99
2018-07-14T16:56:03.474Z,22.71
2018-07-14T17:01:03.739Z,23.01
2018-07-14T17:06:03.209Z,23.06
2018-07-14T17:11:03.782Z,23.06
2018-07-14T17:16:03.039Z,22.97
2018-07-14T17:21:03.553Z,22.56
2018-07-14T17:26:03.740Z,22.75
2018-07-14T17:31:03.079Z,22.13
2018-07-14T17:36:03.529Z,22.20
2018-07-14T17:41:04.119Z,22.06
2018-07-14T17:46:03.408Z,21.98
2018-07-14T17:51:03.865Z,21.67
2018-07-14T17:56:03.095Z,21.50
2018-07-14T18:01:03.365Z,21.31
2018-07-14T18:06:03.834Z,21.00
2018-07-14T18:11:03.457Z,20.99
2018-07-14T18:16:03.721Z,21.03
2018-07-14T18:21:03.205Z,21.02
2018-07-14T18:26:03.531Z,21.13
2018-07-14T18:31:03.726Z,20.89
2018-07-14T18:36:04.720Z,20.92
2018-07-14T18:41:03.804Z,21.01
2018-07-14T18:46:03.082Z,20.97
2018-07-14T18:51:03.547Z,20.63
2018-07-14T18:56:03.847Z,20.75
2018-07-14T19:01:03.053Z,20.66
2018-07-14T19:06:03.625Z,20.59
2018-07-14T19:11:03.096Z,20.04
2018-07-14T19:16:03.457Z,20.22
2018-07-14T19:21:04.113Z,19.98
2018-07-14T19:26:03.695Z,20.24
2018-07-14T19:31:03.399Z,19.82
2018-07-14T19:36:03.869Z,20.17
2018-07-14T19:41:03.453Z,20.15
2018-07-14T19:46:03.745Z,20.34
2018-07-14T19:51:03.463Z,19.94
2018-07-14T19:56:04.223Z,19.93
2018-07-14T20:01:03.692Z,19.95
2018-07-14T20:06:03.333Z,20.11
2018-07-14T20:11:03.822Z,19.88
2018-07-14T20:16:03.100Z,19.68
2018-07-14T20:21:03.573Z,19.49
2018-07-14T20:26:03.803Z,19.36
2018-07-14T20:31:03.084Z,19.09
2018-07-14T20:36:03.557Z,19.08
2018-07-14T20:41:03.145Z,19.09
2018-07-14T20:46:03.447Z,19.26
2018-07-14T20:51:03.922Z,19.40
2018-07-14T20:56:03.116Z,19.63
2018-07-14T21:01:03.425Z,19.23
2018-07-14T21:06:04.098Z,19.00
2018-07-14T21:11:03.480Z,19.01
2018-07-14T21:16:03.786Z,19.52
2018-07-14T21:21:03.624Z,19.24
2018-07-14T21:26:03.513Z,19.43
2018-07-14T21:31:03.826Z,19.89
2018-07-14T21:36:03.293Z,19.66
2018-07-14T21:41:03.890Z,19.87
2018-07-14T21:46:03.206Z,19.63
2018-07-14T21:51:03.739Z,18.94
2018-07-14T21:56:03.918Z,18.69
2018-07-14T22:01:03.194Z,18.64
2018-07-14T22:06:03.695Z,18.64
2018-07-14T22:11:03.330Z,18.72
2018-07-14T22:16:03.596Z,18.75
2018-07-14T22:21:03.077Z,18.31
2018-07-14T22:26:03.305Z,18.02
2018-07-14T22:31:03.623Z,18.06
2018-07-14T22:36:03.090Z,17.91
2018-07-14T22:41:03.687Z,17.84
2018-07-14T22:46:02.972Z,18.18
2018-07-14T22:51:03.839Z,18.98
2018-07-14T22:56:03.642Z,18.20
2018-07-14T23:01:02.952Z,17.95
2018-07-14T23:06:03.422Z,17.64
2018-07-14T23:11:03.006Z,17.45
2018-07-14T23:16:03.318Z,18.06
2018-07-14T23:21:03.818Z,17.62
2018-07-14T23:26:03.026Z,17.28
2018-07-14T23:31:03.553Z,17.28
2018-07-14T23:36:03.796Z,18.06
2018-07-14T23:41:03.406Z,17.76
2018-07-14T23:46:03.701Z,17.99
2018-07-14T23:51:03.184Z,17.91
2018-07-14T23:56:03.397Z,17.55
